createdAt,value
2022-12-22T18:17:18.980Z,32.60
2022-12-22T18:19:46.151Z,18.83
2022-12-22T18:22:24.316Z,26.10
2022-12-22T18:24:53.272Z,32.45
2022-12-22T18:27:20.780Z,24.25
2022-12-22T18:29:50.392Z,28.80
2022-12-22T18:32:27.026Z,24.08
2022-12-22T18:34:57.348Z,27.33
2022-12-22T18:37:24.314Z,26.63
2022-12-22T18:39:51.318Z,77.40
2022-12-22T18:42:25.184Z,27.23
2022-12-22T18:44:54.660Z,28.08
2022-12-22T18:47:26.271Z,26.45
2022-12-22T18:49:53.365Z,20.40
2022-12-22T18:52:23.308Z,20.80
2022-12-22T18:54:52.439Z,22.75
2022-12-22T18:57:24.235Z,24.55
2022-12-22T18:59:51.653Z,22.00
2022-12-22T19:02:24.500Z,22.35
2022-12-22T19:04:51.776Z,25.65
2022-12-22T19:07:22.248Z,20.70
2022-12-22T19:09:49.892Z,29.95
2022-12-22T19:12:19.740Z,27.15
2022-12-22T19:14:55.241Z,30.63
2022-12-22T19:17:26.193Z,36.22
2022-12-22T19:19:55.700Z,32.28
2022-12-22T19:22:27.827Z,38.55
2022-12-22T19:24:59.114Z,29.27
2022-12-22T19:27:27.779Z,32.47
2022-12-22T19:30:03.380Z,33.80
2022-12-22T19:32:38.316Z,35.58
2022-12-22T19:35:13.036Z,27.17
2022-12-22T19:37:42.280Z,30.35
2022-12-22T19:40:09.801Z,27.13
2022-12-22T19:42:42.349Z,22.63
2022-12-22T19:45:38.735Z,23.70
2022-12-22T19:48:25.877Z,22.10
2022-12-22T19:50:55.597Z,21.88
2022-12-22T19:53:23.189Z,22.00
2022-12-22T19:55:55.344Z,33.20
2022-12-22T19:58:29.450Z,21.13
2022-12-22T20:00:59.182Z,25.48
2022-12-22T20:03:26.508Z,29.33
2022-12-22T20:10:56.299Z,12.57
2022-12-22T20:13:30.035Z,12.98
2022-12-22T20:16:00.001Z,15.30
2022-12-22T20:18:30.479Z,12.68
2022-12-22T20:21:01.323Z,11.57
2022-12-22T20:23:31.073Z,8.88
2022-12-22T20:26:02.745Z,9.40
2022-12-22T20:28:35.538Z,8.63
2022-12-22T20:31:08.726Z,9.52
2022-12-22T20:33:36.034Z,10.88
2022-12-22T20:38:41.741Z,11.13
2022-12-22T20:41:11.166Z,11.27
2022-12-22T20:46:21.839Z,11.75
2022-12-22T20:49:01.700Z,10.88
2022-12-22T20:51:34.043Z,10.70
2022-12-22T20:54:03.777Z,12.27
2022-12-22T20:56:40.352Z,14.52
2022-12-22T20:59:15.203Z,16.27
2022-12-22T21:01:44.547Z,14.07
2022-12-22T21:04:11.603Z,12.57
2022-12-22T21:06:49.375Z,12.38
2022-12-22T21:09:16.531Z,18.80
2022-12-22T21:11:43.708Z,21.10
2022-12-22T21:14:11.875Z,16.40
2022-12-22T21:16:39.682Z,25.75
2022-12-22T21:19:15.151Z,19.85
2022-12-22T21:21:44.342Z,19.98
2022-12-22T21:24:13.464Z,14.70
2022-12-22T21:26:45.372Z,17.33
2022-12-22T21:29:25.718Z,14.68
2022-12-22T21:31:55.612Z,13.52
2022-12-22T21:34:27.525Z,11.98
2022-12-22T21:37:01.589Z,11.02
2022-12-22T21:39:39.346Z,10.33
2022-12-22T21:42:07.746Z,9.43
2022-12-22T21:44:38.140Z,9.50
2022-12-22T21:47:05.147Z,7.35
2022-12-22T21:49:33.870Z,11.07
2022-12-22T21:52:01.093Z,9.48
2022-12-22T21:54:28.260Z,8.13
2022-12-22T21:56:58.075Z,9.05
2022-12-22T21:59:29.594Z,13.88
2022-12-22T22:01:57.140Z,8.02
2022-12-22T22:04:26.923Z,10.02
2022-12-22T22:06:53.836Z,8.50
2022-12-22T22:09:20.880Z,10.52
2022-12-22T22:12:06.336Z,10.70
2022-12-22T22:14:33.337Z,9.55
2022-12-22T22:17:00.470Z,8.93
2022-12-22T22:19:27.361Z,9.48
2022-12-22T22:21:56.664Z,10.75
2022-12-22T22:24:23.611Z,8.90
2022-12-22T22:26:51.892Z,10.63
2022-12-22T22:29:21.305Z,8.98
2022-12-22T22:31:48.372Z,8.32
2022-12-22T22:34:19.899Z,7.53
2022-12-22T22:36:48.997Z,6.88
2022-12-22T22:39:16.026Z,5.72
2022-12-22T22:41:43.881Z,7.13
2022-12-22T22:44:11.907Z,7.60
2022-12-22T22:46:41.656Z,8.00
2022-12-22T22:49:09.043Z,7.00
2022-12-22T22:56:32.622Z,7.93
2022-12-22T22:59:00.178Z,7.18
2022-12-22T23:01:31.853Z,7.13
2022-12-22T23:04:01.150Z,5.65
2022-12-22T23:06:30.453Z,6.25
2022-12-22T23:08:57.576Z,5.70
2022-12-22T23:11:24.696Z,5.40
2022-12-22T23:13:54.243Z,4.80
2022-12-22T23:16:21.984Z,7.63
2022-12-22T23:18:54.302Z,5.25
2022-12-22T23:21:23.685Z,5.47
2022-12-22T23:23:57.975Z,6.80
2022-12-22T23:26:25.760Z,3.67
2022-12-22T23:28:57.672Z,5.28
2022-12-22T23:31:37.321Z,5.13
2022-12-22T23:34:04.574Z,6.32
2022-12-22T23:36:32.501Z,5.22
2022-12-22T23:39:01.642Z,7.30
2022-12-22T23:41:28.900Z,7.50
2022-12-22T23:46:26.029Z,7.90
2022-12-22T23:48:55.593Z,5.40
2022-12-22T23:51:24.395Z,2.70
2022-12-22T23:53:51.368Z,2.25
2022-12-22T23:56:18.890Z,4.30
2022-12-22T23:58:50.938Z,1.73
